Time;durP1;ratioP1;P1;durP2;ratioP2;P2;SDS_P1;SDS_P2;PMS_P1;PMS_P2;Temp;Humidity;BMP_temperature;BMP_pressure;BME280_temperature;BME280_humidity;BME280_pressure;Samples;Min_cycle;Max_cycle;Signal;HPM_P1;HPM_P2
2022/02/03 10:12:17;;;;;;;14.60;13.80;;;10.80;99.90;;;;;;5063457;28;20916;-72
2022/02/03 10:14:45;;;;;;;17.33;15.30;;;11.60;99.90;;;;;;5063325;28;20441;-71
2022/02/03 10:17:13;;;;;;;15.13;14.10;;;11.50;99.90;;;;;;5063572;28;20454;-72
2022/02/03 10:19:43;;;;;;;14.70;13.80;;;11.30;99.90;;;;;;5063375;28;20451;-72
2022/02/03 10:22:16;;;;;;;14.13;13.43;;;11.20;99.90;;;;;;5063580;28;20504;-72
2022/02/03 10:24:46;;;;;;;14.20;13.47;;;11.20;99.90;;;;;;5063586;28;20463;-73
2022/02/03 10:27:29;;;;;;;13.93;13.23;;;11.30;99.90;;;;;;5063448;28;20454;-73
2022/02/03 10:30:07;;;;;;;13.07;12.17;;;11.80;99.90;;;;;;5063418;28;20488;-73
2022/02/03 10:32:38;;;;;;;13.57;12.70;;;12.00;99.90;;;;;;5062955;28;20450;-72
2022/02/03 10:35:15;;;;;;;12.80;12.20;;;12.10;99.90;;;;;;5063296;28;20474;-73
2022/02/03 10:37:47;;;;;;;14.20;13.40;;;11.90;99.90;;;;;;5063445;28;20455;-72
2022/02/03 10:43:17;;;;;;;11.73;11.03;;;11.70;99.90;;;;;;5060422;28;20435;-73
2022/02/03 10:46:12;;;;;;;13.27;12.37;;;12.00;99.90;;;;;;5063078;28;20447;-72
2022/02/03 10:51:49;;;;;;;13.40;12.20;;;14.20;99.90;;;;;;5058654;28;21013;-73
2022/02/03 10:57:18;;;;;;;15.40;11.60;;;14.10;99.90;;;;;;5062601;28;20797;-72
2022/02/03 11:02:48;;;;;;;12.43;11.73;;;12.80;99.90;;;;;;5062074;28;20520;-72
2022/02/03 11:05:44;;;;;;;11.70;11.10;;;12.40;99.90;;;;;;5062540;28;20458;-72
2022/02/03 11:08:16;;;;;;;11.37;10.97;;;12.20;99.90;;;;;;5062895;28;20905;-72
2022/02/03 11:10:50;;;;;;;11.53;10.83;;;12.10;99.90;;;;;;5062406;28;20852;-72
2022/02/03 11:13:18;;;;;;;11.87;11.23;;;12.10;99.90;;;;;;5048734;28;20479;-71
2022/02/03 11:15:49;;;;;;;11.00;10.40;;;12.10;99.90;;;;;;5048951;28;20927;-72
2022/02/03 11:18:18;;;;;;;11.60;11.00;;;11.80;99.90;;;;;;5048902;28;20457;-72
2022/02/03 11:20:45;;;;;;;10.80;10.40;;;11.60;99.90;;;;;;5048883;28;20472;-75
2022/02/03 11:23:22;;;;;;;10.00;9.60;;;11.60;99.90;;;;;;5049116;28;20448;-72
2022/02/03 11:26:07;;;;;;;11.07;10.57;;;11.70;99.90;;;;;;5048930;28;20550;-72
2022/02/03 11:28:57;;;;;;;13.00;12.17;;;11.70;99.90;;;;;;5048883;28;20458;-71
2022/02/03 11:46:19;;;;;;;12.33;11.33;;;11.60;99.90;;;;;;4994096;28;20428;-71
2022/02/03 11:52:15;;;;;;;11.53;10.93;;;11.50;99.90;;;;;;5048684;28;20833;-73
2022/02/03 11:55:27;;;;;;;10.93;10.43;;;11.70;99.90;;;;;;5048748;28;20805;-72
2022/02/03 12:12:50;;;;;;;12.10;11.50;;;12.10;99.90;;;;;;5086972;28;20441;-71
2022/02/03 12:18:09;;;;;;;11.83;11.33;;;12.10;99.90;;;;;;5087215;28;20788;-72
2022/02/03 12:20:46;;;;;;;12.80;12.20;;;12.10;99.90;;;;;;5087100;28;20450;-72
2022/02/03 12:23:34;;;;;;;12.60;11.73;;;12.20;99.90;;;;;;5087264;28;21011;-71
2022/02/03 12:26:11;;;;;;;13.40;12.43;;;12.30;99.90;;;;;;5086950;28;20486;-71
2022/02/03 12:28:49;;;;;;;13.80;12.53;;;12.80;99.90;;;;;;5087015;28;20481;-72
2022/02/03 12:31:50;;;;;;;12.03;11.13;;;13.20;99.90;;;;;;5087838;28;20450;-72
2022/02/03 12:39:56;;;;;;;12.13;11.53;;;13.50;99.90;;;;;;5087024;28;20422;-72
2022/02/03 12:42:49;;;;;;;11.73;11.10;;;13.00;99.90;;;;;;5086898;28;20442;-72
2022/02/03 12:45:23;;;;;;;11.10;10.60;;;12.60;99.90;;;;;;5086611;28;20860;-72
2022/02/03 12:47:51;;;;;;;11.37;10.67;;;12.50;99.90;;;;;;5086462;28;20478;-72
2022/02/03 12:50:24;;;;;;;11.57;10.97;;;12.40;99.90;;;;;;5086508;28;20449;-72
2022/02/03 12:52:51;;;;;;;11.10;10.40;;;12.60;99.90;;;;;;5086630;28;20814;-73
2022/02/03 12:55:30;;;;;;;11.47;10.90;;;12.80;99.90;;;;;;5086440;28;20850;-73
2022/02/03 12:58:00;;;;;;;10.40;9.90;;;12.70;99.90;;;;;;5086719;28;20449;-72
2022/02/03 13:00:37;;;;;;;12.00;11.30;;;12.70;99.90;;;;;;5086670;28;20459;-72
2022/02/03 13:03:04;;;;;;;9.53;9.10;;;12.90;99.90;;;;;;5086148;28;20572;-71
2022/02/03 13:05:33;;;;;;;12.13;11.17;;;12.70;99.90;;;;;;5086478;28;20931;-71
2022/02/03 13:08:03;;;;;;;11.10;10.60;;;12.90;99.90;;;;;;5085748;28;21011;-72
2022/02/03 13:10:33;;;;;;;11.53;10.70;;;13.00;99.90;;;;;;5086164;28;20453;-72
2022/02/03 13:13:22;;;;;;;11.20;10.70;;;12.80;99.90;;;;;;5086179;28;20779;-72
2022/02/03 13:15:49;;;;;;;11.27;10.53;;;12.70;99.90;;;;;;5086110;28;20501;-72
2022/02/03 13:18:25;;;;;;;11.03;10.63;;;12.70;99.90;;;;;;5085947;28;20538;-73
2022/02/03 13:21:00;;;;;;;10.10;9.70;;;12.70;99.90;;;;;;5072257;28;20948;-73
2022/02/03 13:23:29;;;;;;;10.93;10.50;;;12.70;99.90;;;;;;5072740;28;20481;-73
2022/02/03 13:26:05;;;;;;;11.60;11.10;;;12.70;99.90;;;;;;5072653;28;20478;-73
2022/02/03 13:28:40;;;;;;;11.60;11.10;;;12.40;99.90;;;;;;5072070;28;20489;-73
2022/02/03 13:31:20;;;;;;;11.80;10.87;;;12.10;99.90;;;;;;5072368;28;20548;-73
2022/02/03 13:33:59;;;;;;;11.30;10.70;;;12.20;99.90;;;;;;5072057;28;20454;-73
2022/02/03 13:36:32;;;;;;;11.37;10.87;;;12.00;99.90;;;;;;5072297;28;20462;-72
2022/02/03 13:39:07;;;;;;;10.60;10.20;;;11.80;99.90;;;;;;5072194;28;20489;-72
2022/02/03 13:41:38;;;;;;;10.07;9.67;;;11.70;99.90;;;;;;5072111;28;20511;-73
2022/02/03 13:44:07;;;;;;;11.47;10.80;;;11.70;99.90;;;;;;5072042;28;20454;-72
2022/02/03 13:46:37;;;;;;;11.53;11.03;;;11.70;99.90;;;;;;5072066;28;20814;-73
2022/02/03 13:49:05;;;;;;;10.90;10.40;;;11.70;99.90;;;;;;5071883;28;20500;-73
2022/02/03 13:51:37;;;;;;;12.03;11.40;;;11.70;99.90;;;;;;5071985;28;20453;-72
2022/02/03 13:54:15;;;;;;;10.60;10.07;;;11.80;99.90;;;;;;5071754;28;20452;-73
2022/02/03 14:12:01;;;;;;;10.33;9.83;;;12.00;99.90;;;;;;5009893;28;20476;-73
2022/02/03 14:22:28;;;;;;;12.17;11.27;;;11.90;99.90;;;;;;5037556;28;20432;-74
2022/02/03 14:27:44;;;;;;;11.53;11.03;;;11.90;99.90;;;;;;5071384;28;20419;-73
2022/02/03 14:30:16;;;;;;;11.93;11.33;;;11.90;99.90;;;;;;5071597;28;20454;-73
2022/02/03 14:32:45;;;;;;;10.63;10.23;;;11.90;99.90;;;;;;5070568;28;20828;-73
2022/02/03 14:35:12;;;;;;;11.17;10.63;;;12.00;99.90;;;;;;5071528;28;20458;-73
2022/02/03 14:37:46;;;;;;;12.30;11.63;;;12.00;99.90;;;;;;5071253;28;20465;-73
2022/02/03 14:40:28;;;;;;;10.73;10.10;;;11.90;99.90;;;;;;5071158;28;20836;-73
2022/02/03 14:42:57;;;;;;;10.10;9.70;;;11.80;99.90;;;;;;5074471;28;20447;-73
2022/02/03 14:45:23;;;;;;;12.00;11.30;;;11.70;99.90;;;;;;5071397;28;20451;-74
2022/02/03 14:47:52;;;;;;;12.03;11.43;;;11.80;99.90;;;;;;5071024;28;20451;-73
2022/02/03 14:50:19;;;;;;;12.23;11.73;;;11.80;99.90;;;;;;5070845;28;20952;-74
2022/02/03 14:52:56;;;;;;;11.97;11.27;;;11.70;99.90;;;;;;5070743;28;20481;-73
2022/02/03 14:58:16;;;;;;;12.20;11.70;;;11.90;99.90;;;;;;5070828;28;20429;-73
2022/02/03 15:00:45;;;;;;;11.30;10.80;;;11.80;99.90;;;;;;5070765;28;20446;-73
2022/02/03 15:03:13;;;;;;;11.57;10.70;;;11.70;99.90;;;;;;5070555;28;20843;-73
2022/02/03 15:05:41;;;;;;;11.70;10.93;;;11.60;99.90;;;;;;5070716;28;20439;-73
2022/02/03 15:08:16;;;;;;;12.07;11.47;;;11.60;99.90;;;;;;5070205;28;20494;-73
2022/02/03 15:10:46;;;;;;;12.33;11.73;;;11.70;99.90;;;;;;5070625;28;20458;-73
2022/02/03 15:13:19;;;;;;;13.40;12.07;;;11.70;99.90;;;;;;5070744;28;20483;-73
2022/02/03 15:15:46;;;;;;;11.70;11.20;;;11.60;99.90;;;;;;5070250;28;20489;-73
2022/02/03 15:18:17;;;;;;;11.50;11.00;;;11.50;99.90;;;;;;5070401;28;20458;-73
2022/02/03 15:20:44;;;;;;;12.03;11.23;;;11.40;99.90;;;;;;5070511;28;20453;-73
2022/02/03 15:23:11;;;;;;;12.47;11.73;;;11.40;99.90;;;;;;5070543;28;20457;-74
2022/02/03 15:25:37;;;;;;;12.27;11.77;;;11.40;99.90;;;;;;5070219;28;20447;-73
2022/02/03 15:28:05;;;;;;;12.83;11.93;;;11.30;99.90;;;;;;5069988;28;20896;-74
2022/02/03 15:30:32;;;;;;;10.70;10.20;;;11.40;99.90;;;;;;5070089;28;20451;-73
2022/02/03 15:32:58;;;;;;;12.27;11.30;;;11.40;99.90;;;;;;5070155;28;20792;-74
2022/02/03 15:35:31;;;;;;;12.30;11.60;;;11.50;99.90;;;;;;5070244;28;20486;-73
2022/02/03 15:37:59;;;;;;;13.47;12.53;;;11.40;99.90;;;;;;5070272;28;20451;-73
2022/02/03 15:40:28;;;;;;;12.90;12.07;;;11.40;99.90;;;;;;5070285;28;20547;-74
2022/02/03 15:43:04;;;;;;;13.63;12.70;;;11.30;99.90;;;;;;5070065;28;20451;-74
2022/02/03 15:45:35;;;;;;;14.60;13.53;;;11.20;99.90;;;;;;5069944;28;20463;-74
2022/02/03 15:48:10;;;;;;;13.33;12.40;;;11.10;99.90;;;;;;5069705;28;20457;-73
2022/02/03 15:50:59;;;;;;;14.47;13.10;;;11.00;99.90;;;;;;5069797;28;20991;-74
2022/02/03 16:02:04;;;;;;;14.20;13.60;;;10.70;99.90;;;;;;5069761;28;20450;-73
2022/02/03 16:18:07;;;;;;;15.27;14.23;;;10.10;99.90;;;;;;5069158;28;20446;-73
2022/02/03 16:20:38;;;;;;;14.13;13.23;;;10.00;99.90;;;;;;5069344;28;20443;-73
2022/02/03 16:23:22;;;;;;;13.77;12.87;;;10.00;99.90;;;;;;5069350;28;20452;-73
2022/02/03 16:26:31;;;;;;;12.83;12.03;;;9.90;99.90;;;;;;5069516;28;20450;-73
2022/02/03 16:43:20;;;;;;;13.83;12.93;;;9.70;99.90;;;;;;5069052;28;20446;-73
2022/02/03 16:51:10;;;;;;;14.10;13.20;;;9.50;99.90;;;;;;5069270;28;20471;-73
2022/02/03 16:53:36;;;;;;;15.30;13.77;;;9.50;99.90;;;;;;5069097;28;20455;-74
2022/02/03 16:56:08;;;;;;;14.73;13.67;;;9.50;99.90;;;;;;5072273;28;20524;-72
2022/02/03 16:58:36;;;;;;;15.10;13.90;;;9.40;99.90;;;;;;5072797;28;20543;-74
2022/02/03 17:01:03;;;;;;;22.10;14.17;;;9.40;99.90;;;;;;5072652;28;20477;-73
2022/02/03 17:03:29;;;;;;;14.77;13.77;;;9.20;99.90;;;;;;5072622;28;20466;-72
2022/02/03 17:05:56;;;;;;;14.10;13.20;;;9.20;99.90;;;;;;5073183;28;20457;-73
2022/02/03 17:08:24;;;;;;;14.93;14.03;;;9.20;99.90;;;;;;5072486;28;20481;-73
2022/02/03 17:10:51;;;;;;;16.63;15.10;;;9.20;99.90;;;;;;5072493;28;20500;-74
2022/02/03 17:13:20;;;;;;;14.50;13.70;;;9.10;99.90;;;;;;5072779;28;20451;-73
2022/02/03 17:15:47;;;;;;;15.23;14.03;;;9.00;99.90;;;;;;5072735;28;20473;-72
2022/02/03 17:18:14;;;;;;;16.30;14.90;;;9.00;99.90;;;;;;5072717;28;20947;-72
2022/02/03 17:20:42;;;;;;;14.43;13.40;;;8.90;99.90;;;;;;5072735;28;20936;-73
2022/02/03 17:23:14;;;;;;;15.07;13.83;;;9.00;99.90;;;;;;5072594;28;20443;-73
2022/02/03 17:25:47;;;;;;;15.20;13.93;;;8.90;99.90;;;;;;5072790;28;20455;-72
2022/02/03 17:28:19;;;;;;;15.07;13.70;;;8.90;99.90;;;;;;5072627;28;20455;-72
2022/02/03 17:30:53;;;;;;;14.20;13.40;;;8.80;99.90;;;;;;5072430;28;20506;-71
2022/02/03 17:53:03;;;;;;;17.00;15.80;;;9.00;99.90;;;;;;5071957;28;20431;-71
